ADDS METAR Data INFO
IDs: Format: Raw Decoded Include TAF

Data at: 1121 UTC 21 Feb 2018

KJER 201453Z AUTO 24014KT 10SM CLR M13/M17 A3005 RMK AO2 SLP229 T11281172 51022 TSNO
KJER 201353Z AUTO 23012KT 10SM CLR M13/M17 A3003 RMK AO2 SLP222 T11281172 TSNO
KJER 201253Z AUTO 22013KT 10SM BKN049 M12/M17 A3001 RMK AO2 SLP209 T11221172 TSNO
KJER 201153Z AUTO 22012KT 10SM SCT050 M12/M17 A2998 RMK AO2 SLP196 T11221167 11094 21122 51017 TSNO
KJER 201053Z AUTO 22014KT 10SM CLR M12/M17 A2996 RMK AO2 SLP187 T11221167 TSNO
KJER 200953Z AUTO 23017KT 10SM CLR M12/M17 A2994 RMK AO2 SLP177 T11171167 TSNO
KJER 200853Z AUTO 23018KT 10SM CLR M12/M17 A2992 RMK AO2 PK WND 24026/0810 SLP172 T11171167 51023 TSNO
KJER 200753Z AUTO 24021G26KT 10SM CLR M11/M16 A2990 RMK AO2 PK WND 24027/0713 SLP168 T11111161 TSNO
KJER 200653Z AUTO 24020KT 10SM CLR M10/M16 A2988 RMK AO2 PK WND 24031/0612 SLP156 T11001161 400001100 TSNO
KJER 200553Z AUTO 23017KT 10SM CLR M09/M16 A2985 RMK AO2 PK WND 23029/0522 SLP148 T10941161 11022 21094 51017 TSNO
KJER 200453Z AUTO 23019G24KT 10SM CLR M09/M16 A2983 RMK AO2 SLP144 T10891156 TSNO
KJER 200353Z AUTO 23015KT 10SM CLR M07/M16 A2981 RMK AO2 PK WND 25027/0258 SLP132 T10721161 TSNO
KJER 200253Z AUTO 26019G28KT 10SM CLR M07/M16 A2979 RMK AO2 PK WND 26030/0213 SLP128 T10671161 51032 TSNO
KJER 200153Z AUTO 25016G30KT 10SM CLR M06/M15 A2976 RMK AO2 PK WND 24031/0059 SLP114 T10611150 TSNO
KJER 200053Z AUTO 25022G28KT 10SM CLR M04/M12 A2971 RMK AO2 PK WND 25033/0011 SLP096 T10391122 TSNO
KJER 192353Z AUTO 25026G35KT 10SM CLR M02/M11 A2968 RMK AO2 PK WND 26036/2315 SLP081 T10221111 10000 21039 53009 TSNO